sensor_id;sensor_type;location;lat;lon;timestamp;pressure;altitude;pressure_sealevel;temperature;humidity
67980;BME280;54760;47.490;19.030;2023-05-19T00:01:10;100721.41;;;14.03;89.57
67980;BME280;54760;47.490;19.030;2023-05-19T00:03:40;100727.72;;;13.64;92.80
67980;BME280;54760;47.490;19.030;2023-05-19T00:06:13;100728.37;;;13.52;93.83
67980;BME280;54760;47.490;19.030;2023-05-19T00:08:39;100729.97;;;13.69;92.64
67980;BME280;54760;47.490;19.030;2023-05-19T00:11:05;100724.53;;;13.85;92.52
67980;BME280;54760;47.490;19.030;2023-05-19T00:13:30;100718.31;;;14.01;90.72
67980;BME280;54760;47.490;19.030;2023-05-19T00:15:56;100728.06;;;13.86;91.54
67980;BME280;54760;47.490;19.030;2023-05-19T00:18:22;100722.66;;;13.82;91.38
67980;BME280;54760;47.490;19.030;2023-05-19T00:20:47;100732.25;;;13.74;92.59
67980;BME280;54760;47.490;19.030;2023-05-19T00:23:13;100729.56;;;13.91;92.50
67980;BME280;54760;47.490;19.030;2023-05-19T00:25:38;100729.38;;;13.98;91.67
67980;BME280;54760;47.490;19.030;2023-05-19T00:28:04;100724.56;;;13.66;93.87
67980;BME280;54760;47.490;19.030;2023-05-19T00:30:30;100729.25;;;13.26;95.11
67980;BME280;54760;47.490;19.030;2023-05-19T00:32:55;100733.94;;;13.68;92.36
67980;BME280;54760;47.490;19.030;2023-05-19T00:35:22;100719.91;;;13.43;94.58
67980;BME280;54760;47.490;19.030;2023-05-19T00:37:47;100714.19;;;13.73;92.91
67980;BME280;54760;47.490;19.030;2023-05-19T00:40:13;100712.66;;;13.33;93.69
67980;BME280;54760;47.490;19.030;2023-05-19T00:42:39;100710.53;;;13.60;93.29
67980;BME280;54760;47.490;19.030;2023-05-19T00:45:05;100717.94;;;13.43;92.37
67980;BME280;54760;47.490;19.030;2023-05-19T00:47:31;100712.22;;;13.54;92.31
67980;BME280;54760;47.490;19.030;2023-05-19T00:49:56;100705.72;;;13.44;92.79
67980;BME280;54760;47.490;19.030;2023-05-19T00:52:22;100708.19;;;13.39;92.90
67980;BME280;54760;47.490;19.030;2023-05-19T00:54:47;100707.69;;;13.24;93.30
67980;BME280;54760;47.490;19.030;2023-05-19T00:57:13;100703.34;;;13.27;93.61
67980;BME280;54760;47.490;19.030;2023-05-19T00:59:39;100709.75;;;13.40;93.01
67980;BME280;54760;47.490;19.030;2023-05-19T01:02:05;100707.78;;;13.40;92.59
67980;BME280;54760;47.490;19.030;2023-05-19T01:04:32;100706.00;;;13.50;91.67
67980;BME280;54760;47.490;19.030;2023-05-19T01:06:59;100712.66;;;13.33;93.22
67980;BME280;54760;47.490;19.030;2023-05-19T01:09:25;100705.59;;;13.32;92.74
67980;BME280;54760;47.490;19.030;2023-05-19T01:11:50;100713.62;;;12.99;94.47
67980;BME280;54760;47.490;19.030;2023-05-19T01:14:16;100703.81;;;13.61;91.76
67980;BME280;54760;47.490;19.030;2023-05-19T01:16:48;100702.44;;;13.53;91.89
67980;BME280;54760;47.490;19.030;2023-05-19T01:19:35;100700.38;;;13.57;91.09
67980;BME280;54760;47.490;19.030;2023-05-19T01:28:02;100713.16;;;13.05;97.11
67980;BME280;54760;47.490;19.030;2023-05-19T01:30:47;100711.22;;;13.25;96.33
67980;BME280;54760;47.490;19.030;2023-05-19T01:33:14;100712.84;;;13.22;96.26
67980;BME280;54760;47.490;19.030;2023-05-19T01:35:40;100713.25;;;13.21;97.10
67980;BME280;54760;47.490;19.030;2023-05-19T01:38:10;100711.78;;;13.36;96.34
67980;BME280;54760;47.490;19.030;2023-05-19T01:40:38;100710.22;;;13.35;96.08
67980;BME280;54760;47.490;19.030;2023-05-19T01:43:04;100706.81;;;13.08;97.05
67980;BME280;54760;47.490;19.030;2023-05-19T01:45:32;100714.47;;;12.96;98.12
67980;BME280;54760;47.490;19.030;2023-05-19T01:47:59;100710.63;;;12.90;98.50
67980;BME280;54760;47.490;19.030;2023-05-19T01:50:26;100707.72;;;12.78;100.00
67980;BME280;54760;47.490;19.030;2023-05-19T01:52:52;100711.31;;;12.75;99.07
67980;BME280;54760;47.490;19.030;2023-05-19T01:55:18;100703.34;;;12.57;99.65
67980;BME280;54760;47.490;19.030;2023-05-19T02:06:14;100705.00;;;13.21;94.36
67980;BME280;54760;47.490;19.030;2023-05-19T02:13:49;100706.84;;;13.27;95.59
67980;BME280;54760;47.490;19.030;2023-05-19T02:16:15;100712.91;;;13.19;95.51
67980;BME280;54760;47.490;19.030;2023-05-19T02:18:41;100704.91;;;12.81;98.14
67980;BME280;54760;47.490;19.030;2023-05-19T02:21:10;100708.63;;;13.18;96.02
67980;BME280;54760;47.490;19.030;2023-05-19T02:23:39;100700.78;;;13.36;95.21
67980;BME280;54760;47.490;19.030;2023-05-19T02:26:05;100706.09;;;13.47;94.79
67980;BME280;54760;47.490;19.030;2023-05-19T02:28:33;100709.69;;;13.43;95.44
67980;BME280;54760;47.490;19.030;2023-05-19T02:30:58;100697.34;;;13.52;95.36
67980;BME280;54760;47.490;19.030;2023-05-19T02:33:23;100701.50;;;13.40;96.09
67980;BME280;54760;47.490;19.030;2023-05-19T02:35:50;100700.09;;;13.32;96.07
67980;BME280;54760;47.490;19.030;2023-05-19T02:38:15;100703.44;;;13.20;96.74
67980;BME280;54760;47.490;19.030;2023-05-19T02:40:41;100703.03;;;13.21;96.42
67980;BME280;54760;47.490;19.030;2023-05-19T02:43:06;100707.50;;;13.35;95.59
67980;BME280;54760;47.490;19.030;2023-05-19T02:45:32;100705.66;;;13.28;95.54
67980;BME280;54760;47.490;19.030;2023-05-19T02:47:58;100700.72;;;12.96;96.66
67980;BME280;54760;47.490;19.030;2023-05-19T02:50:23;100699.66;;;12.67;99.98
67980;BME280;54760;47.490;19.030;2023-05-19T02:52:49;100702.75;;;12.92;98.28
67980;BME280;54760;47.490;19.030;2023-05-19T02:55:14;100702.59;;;12.80;99.02
67980;BME280;54760;47.490;19.030;2023-05-19T02:57:41;100707.87;;;12.90;98.64
67980;BME280;54760;47.490;19.030;2023-05-19T03:00:08;100704.66;;;12.95;98.69
67980;BME280;54760;47.490;19.030;2023-05-19T03:02:33;100700.84;;;13.13;98.46
67980;BME280;54760;47.490;19.030;2023-05-19T03:04:59;100702.16;;;12.81;99.23
67980;BME280;54760;47.490;19.030;2023-05-19T03:07:27;100703.56;;;12.70;100.00
67980;BME280;54760;47.490;19.030;2023-05-19T03:09:53;100708.97;;;12.73;100.00
67980;BME280;54760;47.490;19.030;2023-05-19T03:12:18;100708.00;;;13.07;99.91
67980;BME280;54760;47.490;19.030;2023-05-19T03:14:44;100706.22;;;12.96;100.00
67980;BME280;54760;47.490;19.030;2023-05-19T03:17:09;100706.34;;;12.89;100.00
67980;BME280;54760;47.490;19.030;2023-05-19T03:19:35;100702.03;;;13.12;100.00
67980;BME280;54760;47.490;19.030;2023-05-19T03:22:00;100710.03;;;13.26;98.40
67980;BME280;54760;47.490;19.030;2023-05-19T03:24:26;100718.47;;;13.15;99.57
67980;BME280;54760;47.490;19.030;2023-05-19T03:26:51;100726.53;;;13.02;100.00
67980;BME280;54760;47.490;19.030;2023-05-19T03:29:17;100717.94;;;13.24;100.00
67980;BME280;54760;47.490;19.030;2023-05-19T03:31:42;100719.97;;;13.39;98.48
67980;BME280;54760;47.490;19.030;2023-05-19T03:34:07;100723.53;;;13.17;99.34
67980;BME280;54760;47.490;19.030;2023-05-19T03:36:33;100722.09;;;13.09;100.00
67980;BME280;54760;47.490;19.030;2023-05-19T03:39:04;100714.87;;;13.18;99.71
67980;BME280;54760;47.490;19.030;2023-05-19T03:41:29;100717.38;;;13.32;98.24
67980;BME280;54760;47.490;19.030;2023-05-19T03:43:54;100716.78;;;13.21;98.88
67980;BME280;54760;47.490;19.030;2023-05-19T03:46:20;100716.13;;;12.90;100.00
67980;BME280;54760;47.490;19.030;2023-05-19T03:48:45;100722.47;;;12.87;100.00
67980;BME280;54760;47.490;19.030;2023-05-19T03:51:11;100713.78;;;13.55;96.71
67980;BME280;54760;47.490;19.030;2023-05-19T03:53:36;100718.19;;;13.69;94.45
67980;BME280;54760;47.490;19.030;2023-05-19T03:56:02;100711.94;;;13.29;97.25
67980;BME280;54760;47.490;19.030;2023-05-19T03:58:27;100711.03;;;13.55;94.62
67980;BME280;54760;47.490;19.030;2023-05-19T04:00:54;100717.66;;;13.58;95.17
67980;BME280;54760;47.490;19.030;2023-05-19T04:03:20;100718.06;;;13.17;95.69
67980;BME280;54760;47.490;19.030;2023-05-19T04:05:45;100717.16;;;13.23;97.15
67980;BME280;54760;47.490;19.030;2023-05-19T04:08:11;100727.44;;;13.78;92.70
67980;BME280;54760;47.490;19.030;2023-05-19T04:10:36;100725.97;;;13.74;92.75
67980;BME280;54760;47.490;19.030;2023-05-19T04:13:01;100723.38;;;13.47;94.11
67980;BME280;54760;47.490;19.030;2023-05-19T04:15:27;100718.16;;;13.72;93.97
67980;BME280;54760;47.490;19.030;2023-05-19T04:17:52;100725.63;;;13.32;95.74
67980;BME280;54760;47.490;19.030;2023-05-19T04:20:18;100732.31;;;13.08;98.02
67980;BME280;54760;47.490;19.030;2023-05-19T04:22:43;100733.00;;;13.35;96.98
67980;BME280;54760;47.490;19.030;2023-05-19T04:25:09;100730.28;;;13.55;95.87
67980;BME280;54760;47.490;19.030;2023-05-19T04:27:34;100731.19;;;13.68;94.23
67980;BME280;54760;47.490;19.030;2023-05-19T04:30:06;100728.22;;;14.15;91.40
67980;BME280;54760;47.490;19.030;2023-05-19T04:32:32;100732.41;;;13.67;93.49
67980;BME280;54760;47.490;19.030;2023-05-19T04:34:57;100733.19;;;13.68;94.93
67980;BME280;54760;47.490;19.030;2023-05-19T04:37:24;100734.59;;;14.12;91.83
67980;BME280;54760;47.490;19.030;2023-05-19T04:39:50;100751.75;;;14.00;92.71
67980;BME280;54760;47.490;19.030;2023-05-19T04:42:16;100734.75;;;14.41;90.27
67980;BME280;54760;47.490;19.030;2023-05-19T04:44:44;100748.28;;;14.84;87.01
67980;BME280;54760;47.490;19.030;2023-05-19T04:47:09;100746.69;;;14.34;89.82
67980;BME280;54760;47.490;19.030;2023-05-19T04:49:35;100745.25;;;14.62;87.87
67980;BME280;54760;47.490;19.030;2023-05-19T04:52:05;100749.88;;;13.97;91.80
67980;BME280;54760;47.490;19.030;2023-05-19T04:54:32;100750.44;;;14.24;90.78
67980;BME280;54760;47.490;19.030;2023-05-19T04:56:58;100753.09;;;14.47;87.69
67980;BME280;54760;47.490;19.030;2023-05-19T04:59:23;100755.25;;;14.40;89.67
67980;BME280;54760;47.490;19.030;2023-05-19T05:01:48;100753.69;;;14.39;88.60
67980;BME280;54760;47.490;19.030;2023-05-19T05:04:14;100752.41;;;14.43;88.66
67980;BME280;54760;47.490;19.030;2023-05-19T05:06:39;100745.63;;;14.64;87.77
67980;BME280;54760;47.490;19.030;2023-05-19T05:09:06;100745.97;;;14.66;88.21
67980;BME280;54760;47.490;19.030;2023-05-19T05:11:32;100758.94;;;14.49;89.12
67980;BME280;54760;47.490;19.030;2023-05-19T05:13:58;100752.91;;;14.87;87.44
67980;BME280;54760;47.490;19.030;2023-05-19T05:16:23;100760.50;;;15.44;85.18
67980;BME280;54760;47.490;19.030;2023-05-19T05:18:49;100761.88;;;15.81;82.52
67980;BME280;54760;47.490;19.030;2023-05-19T05:21:15;100758.56;;;15.86;83.05
67980;BME280;54760;47.490;19.030;2023-05-19T05:23:40;100753.41;;;16.13;80.95
67980;BME280;54760;47.490;19.030;2023-05-19T05:26:15;100759.06;;;16.22;80.41
67980;BME280;54760;47.490;19.030;2023-05-19T05:28:41;100762.69;;;16.19;79.86
67980;BME280;54760;47.490;19.030;2023-05-19T05:31:07;100767.69;;;16.24;79.07
67980;BME280;54760;47.490;19.030;2023-05-19T05:33:32;100771.12;;;16.54;77.66
67980;BME280;54760;47.490;19.030;2023-05-19T05:35:57;100760.50;;;16.39;78.85
67980;BME280;54760;47.490;19.030;2023-05-19T05:38:23;100767.03;;;16.45;79.10
67980;BME280;54760;47.490;19.030;2023-05-19T05:40:48;100771.00;;;16.57;77.86
67980;BME280;54760;47.490;19.030;2023-05-19T05:43:14;100761.59;;;16.55;78.42
67980;BME280;54760;47.490;19.030;2023-05-19T05:45:39;100758.19;;;16.63;78.50
67980;BME280;54760;47.490;19.030;2023-05-19T05:48:05;100764.16;;;16.74;77.93
67980;BME280;54760;47.490;19.030;2023-05-19T05:50:30;100764.91;;;17.00;76.47
67980;BME280;54760;47.490;19.030;2023-05-19T05:52:56;100761.88;;;17.07;75.72
67980;BME280;54760;47.490;19.030;2023-05-19T05:55:24;100770.22;;;16.95;76.34
67980;BME280;54760;47.490;19.030;2023-05-19T05:57:49;100765.63;;;17.13;75.61
67980;BME280;54760;47.490;19.030;2023-05-19T06:00:16;100763.59;;;17.26;74.06
67980;BME280;54760;47.490;19.030;2023-05-19T06:02:48;100774.72;;;17.14;74.49
67980;BME280;54760;47.490;19.030;2023-05-19T06:05:14;100766.88;;;17.00;76.02
67980;BME280;54760;47.490;19.030;2023-05-19T06:07:40;100768.53;;;16.97;76.89
67980;BME280;54760;47.490;19.030;2023-05-19T06:10:06;100764.84;;;17.13;76.24
67980;BME280;54760;47.490;19.030;2023-05-19T06:12:33;100776.13;;;16.59;77.90
67980;BME280;54760;47.490;19.030;2023-05-19T06:14:59;100776.69;;;17.13;77.46
67980;BME280;54760;47.490;19.030;2023-05-19T06:17:24;100769.88;;;18.67;71.62
67980;BME280;54760;47.490;19.030;2023-05-19T06:19:49;100769.25;;;19.48;66.29
67980;BME280;54760;47.490;19.030;2023-05-19T06:22:15;100768.00;;;19.49;65.80
67980;BME280;54760;47.490;19.030;2023-05-19T06:24:40;100765.75;;;18.89;67.55
67980;BME280;54760;47.490;19.030;2023-05-19T06:27:06;100780.66;;;18.65;68.30
67980;BME280;54760;47.490;19.030;2023-05-19T06:29:31;100781.78;;;18.85;67.69
67980;BME280;54760;47.490;19.030;2023-05-19T06:31:57;100786.37;;;18.70;68.10
67980;BME280;54760;47.490;19.030;2023-05-19T06:34:23;100794.50;;;18.34;69.83
67980;BME280;54760;47.490;19.030;2023-05-19T06:36:49;100788.38;;;16.83;75.53
67980;BME280;54760;47.490;19.030;2023-05-19T06:39:14;100798.00;;;17.25;74.65
67980;BME280;54760;47.490;19.030;2023-05-19T06:41:40;100801.28;;;16.86;75.30
67980;BME280;54760;47.490;19.030;2023-05-19T06:44:06;100798.66;;;16.95;75.17
67980;BME280;54760;47.490;19.030;2023-05-19T06:46:32;100803.19;;;17.70;72.98
67980;BME280;54760;47.490;19.030;2023-05-19T06:48:57;100801.59;;;17.48;73.71
67980;BME280;54760;47.490;19.030;2023-05-19T06:51:22;100810.16;;;17.97;71.76
67980;BME280;54760;47.490;19.030;2023-05-19T06:53:48;100807.94;;;18.13;70.85
67980;BME280;54760;47.490;19.030;2023-05-19T06:56:14;100812.94;;;18.28;70.16
67980;BME280;54760;47.490;19.030;2023-05-19T06:58:40;100811.38;;;17.40;73.26
67980;BME280;54760;47.490;19.030;2023-05-19T07:01:05;100813.59;;;18.32;69.80
67980;BME280;54760;47.490;19.030;2023-05-19T07:03:31;100816.84;;;18.39;69.46
67980;BME280;54760;47.490;19.030;2023-05-19T07:05:56;100817.88;;;18.33;68.70
67980;BME280;54760;47.490;19.030;2023-05-19T07:08:22;100817.53;;;18.52;69.17
67980;BME280;54760;47.490;19.030;2023-05-19T07:10:47;100815.88;;;18.55;69.38
67980;BME280;54760;47.490;19.030;2023-05-19T07:13:13;100814.28;;;18.85;67.90
67980;BME280;54760;47.490;19.030;2023-05-19T07:15:38;100809.28;;;18.62;67.46
67980;BME280;54760;47.490;19.030;2023-05-19T07:18:04;100808.56;;;18.48;68.43
67980;BME280;54760;47.490;19.030;2023-05-19T07:20:29;100806.69;;;19.43;66.27
67980;BME280;54760;47.490;19.030;2023-05-19T07:22:55;100804.88;;;19.50;65.45
67980;BME280;54760;47.490;19.030;2023-05-19T07:25:20;100810.84;;;19.84;63.59
67980;BME280;54760;47.490;19.030;2023-05-19T07:27:46;100805.31;;;19.39;64.69
67980;BME280;54760;47.490;19.030;2023-05-19T07:30:11;100795.69;;;20.04;62.83
67980;BME280;54760;47.490;19.030;2023-05-19T07:32:37;100795.66;;;20.22;61.80
67980;BME280;54760;47.490;19.030;2023-05-19T07:35:04;100788.06;;;20.41;62.09
67980;BME280;54760;47.490;19.030;2023-05-19T07:37:30;100790.69;;;20.35;62.51
67980;BME280;54760;47.490;19.030;2023-05-19T07:39:55;100786.19;;;19.77;62.84
67980;BME280;54760;47.490;19.030;2023-05-19T07:42:20;100784.56;;;20.13;62.92
67980;BME280;54760;47.490;19.030;2023-05-19T07:44:46;100783.47;;;20.19;62.82
67980;BME280;54760;47.490;19.030;2023-05-19T07:47:11;100786.09;;;20.32;62.89
67980;BME280;54760;47.490;19.030;2023-05-19T07:49:37;100782.09;;;20.66;60.96
67980;BME280;54760;47.490;19.030;2023-05-19T07:52:02;100781.22;;;19.81;63.77
67980;BME280;54760;47.490;19.030;2023-05-19T07:54:28;100786.44;;;18.97;66.48
67980;BME280;54760;47.490;19.030;2023-05-19T07:56:53;100779.06;;;19.22;65.33
67980;BME280;54760;47.490;19.030;2023-05-19T07:59:18;100778.53;;;20.14;63.89
67980;BME280;54760;47.490;19.030;2023-05-19T08:01:44;100770.53;;;21.15;60.14
67980;BME280;54760;47.490;19.030;2023-05-19T08:04:09;100768.63;;;21.59;59.73
67980;BME280;54760;47.490;19.030;2023-05-19T08:06:36;100771.34;;;21.30;59.83
67980;BME280;54760;47.490;19.030;2023-05-19T08:09:02;100771.00;;;21.67;59.02
67980;BME280;54760;47.490;19.030;2023-05-19T08:11:27;100766.09;;;21.61;59.02
67980;BME280;54760;47.490;19.030;2023-05-19T08:13:53;100772.87;;;21.70;57.89
67980;BME280;54760;47.490;19.030;2023-05-19T08:16:18;100774.34;;;20.94;58.49
67980;BME280;54760;47.490;19.030;2023-05-19T08:18:44;100770.56;;;20.49;59.42
67980;BME280;54760;47.490;19.030;2023-05-19T08:21:09;100776.97;;;20.22;59.95
67980;BME280;54760;47.490;19.030;2023-05-19T08:23:34;100770.03;;;20.18;61.07
67980;BME280;54760;47.490;19.030;2023-05-19T08:26:01;100771.16;;;20.53;61.08
67980;BME280;54760;47.490;19.030;2023-05-19T08:28:27;100772.56;;;20.49;60.96
67980;BME280;54760;47.490;19.030;2023-05-19T08:30:52;100771.47;;;19.95;61.66
67980;BME280;54760;47.490;19.030;2023-05-19T08:33:18;100770.47;;;19.56;62.46
67980;BME280;54760;47.490;19.030;2023-05-19T08:35:46;100773.81;;;19.06;64.06
67980;BME280;54760;47.490;19.030;2023-05-19T08:38:11;100761.19;;;19.41;63.59
67980;BME280;54760;47.490;19.030;2023-05-19T08:40:40;100764.75;;;20.29;61.16
67980;BME280;54760;47.490;19.030;2023-05-19T08:43:05;100761.41;;;20.58;60.74
67980;BME280;54760;47.490;19.030;2023-05-19T08:45:32;100767.75;;;20.82;58.95
67980;BME280;54760;47.490;19.030;2023-05-19T08:47:58;100764.62;;;20.89;58.12
67980;BME280;54760;47.490;19.030;2023-05-19T08:50:28;100763.47;;;21.29;58.14
67980;BME280;54760;47.490;19.030;2023-05-19T08:53:00;100762.06;;;21.62;56.63
67980;BME280;54760;47.490;19.030;2023-05-19T08:55:52;100763.28;;;22.00;55.80
67980;BME280;54760;47.490;19.030;2023-05-19T08:58:20;100756.16;;;21.70;55.93
67980;BME280;54760;47.490;19.030;2023-05-19T09:00:46;100754.91;;;21.32;55.59
67980;BME280;54760;47.490;19.030;2023-05-19T09:03:12;100751.78;;;21.39;56.29
67980;BME280;54760;47.490;19.030;2023-05-19T09:05:40;100758.66;;;21.97;55.76
67980;BME280;54760;47.490;19.030;2023-05-19T09:08:06;100759.03;;;22.19;56.11
67980;BME280;54760;47.490;19.030;2023-05-19T09:10:31;100753.44;;;22.69;55.13
67980;BME280;54760;47.490;19.030;2023-05-19T09:12:57;100751.31;;;22.78;54.90
67980;BME280;54760;47.490;19.030;2023-05-19T09:15:25;100749.09;;;23.03;54.44
67980;BME280;54760;47.490;19.030;2023-05-19T09:18:04;100757.69;;;22.99;53.61
67980;BME280;54760;47.490;19.030;2023-05-19T09:20:30;100752.50;;;22.92;54.38
67980;BME280;54760;47.490;19.030;2023-05-19T09:22:58;100753.31;;;22.78;54.00
67980;BME280;54760;47.490;19.030;2023-05-19T09:25:24;100758.97;;;22.48;56.44
67980;BME280;54760;47.490;19.030;2023-05-19T09:27:53;100762.09;;;21.77;55.99
67980;BME280;54760;47.490;19.030;2023-05-19T09:30:18;100764.78;;;21.86;56.38
67980;BME280;54760;47.490;19.030;2023-05-19T09:32:44;100760.38;;;22.09;56.12
67980;BME280;54760;47.490;19.030;2023-05-19T09:35:13;100762.13;;;22.07;55.97
67980;BME280;54760;47.490;19.030;2023-05-19T09:37:44;100753.53;;;22.25;55.23
67980;BME280;54760;47.490;19.030;2023-05-19T09:40:15;100755.97;;;22.02;55.01
67980;BME280;54760;47.490;19.030;2023-05-19T09:42:41;100757.28;;;21.78;55.41
67980;BME280;54760;47.490;19.030;2023-05-19T09:45:08;100751.75;;;22.07;54.39
67980;BME280;54760;47.490;19.030;2023-05-19T09:47:34;100748.47;;;22.23;53.98
67980;BME280;54760;47.490;19.030;2023-05-19T09:50:04;100748.78;;;22.45;52.76
67980;BME280;54760;47.490;19.030;2023-05-19T09:52:30;100752.78;;;22.24;53.42
67980;BME280;54760;47.490;19.030;2023-05-19T09:54:59;100744.53;;;22.50;52.80
67980;BME280;54760;47.490;19.030;2023-05-19T09:57:26;100741.44;;;22.28;52.61
67980;BME280;54760;47.490;19.030;2023-05-19T09:59:58;100740.66;;;22.77;51.98
67980;BME280;54760;47.490;19.030;2023-05-19T10:02:24;100736.44;;;22.67;52.22
67980;BME280;54760;47.490;19.030;2023-05-19T10:04:51;100731.75;;;22.43;53.13
67980;BME280;54760;47.490;19.030;2023-05-19T10:07:18;100736.66;;;22.48;53.32
67980;BME280;54760;47.490;19.030;2023-05-19T10:09:43;100732.63;;;22.50;52.40
67980;BME280;54760;47.490;19.030;2023-05-19T10:12:11;100727.97;;;22.96;51.09
67980;BME280;54760;47.490;19.030;2023-05-19T10:14:37;100721.87;;;22.98;51.73
67980;BME280;54760;47.490;19.030;2023-05-19T10:17:04;100705.47;;;23.05;50.67
67980;BME280;54760;47.490;19.030;2023-05-19T10:19:31;100712.53;;;22.80;50.78
67980;BME280;54760;47.490;19.030;2023-05-19T10:21:57;100712.16;;;22.73;50.58
67980;BME280;54760;47.490;19.030;2023-05-19T10:24:23;100716.00;;;22.75;51.10
67980;BME280;54760;47.490;19.030;2023-05-19T10:26:52;100718.13;;;22.66;51.60
67980;BME280;54760;47.490;19.030;2023-05-19T10:29:22;100716.22;;;22.72;51.60
67980;BME280;54760;47.490;19.030;2023-05-19T10:31:51;100713.47;;;22.77;50.17
67980;BME280;54760;47.490;19.030;2023-05-19T10:34:22;100716.44;;;22.88;50.92
67980;BME280;54760;47.490;19.030;2023-05-19T10:37:41;100713.00;;;23.19;50.78
67980;BME280;54760;47.490;19.030;2023-05-19T10:40:09;100715.25;;;23.41;50.06
67980;BME280;54760;47.490;19.030;2023-05-19T10:42:52;100717.09;;;23.70;48.43
67980;BME280;54760;47.490;19.030;2023-05-19T10:45:26;100712.53;;;23.72;48.63
67980;BME280;54760;47.490;19.030;2023-05-19T10:47:53;100701.25;;;23.87;47.98
67980;BME280;54760;47.490;19.030;2023-05-19T10:50:19;100705.00;;;24.15;47.07
67980;BME280;54760;47.490;19.030;2023-05-19T10:52:52;100702.88;;;23.99;47.02
67980;BME280;54760;47.490;19.030;2023-05-19T10:55:46;100702.31;;;23.95;47.01
67980;BME280;54760;47.490;19.030;2023-05-19T10:58:14;100697.63;;;23.81;48.49
67980;BME280;54760;47.490;19.030;2023-05-19T11:00:39;100695.19;;;23.63;48.49
67980;BME280;54760;47.490;19.030;2023-05-19T11:03:11;100694.09;;;23.86;48.16
67980;BME280;54760;47.490;19.030;2023-05-19T11:05:37;100689.19;;;24.07;47.67
67980;BME280;54760;47.490;19.030;2023-05-19T11:08:05;100689.25;;;22.69;50.99
67980;BME280;54760;47.490;19.030;2023-05-19T11:10:32;100683.97;;;23.37;48.99
67980;BME280;54760;47.490;19.030;2023-05-19T11:12:58;100676.16;;;23.67;48.36
67980;BME280;54760;47.490;19.030;2023-05-19T11:15:27;100685.91;;;23.77;47.62
67980;BME280;54760;47.490;19.030;2023-05-19T11:17:53;100676.38;;;23.95;47.75
67980;BME280;54760;47.490;19.030;2023-05-19T11:20:22;100678.97;;;23.98;48.38
67980;BME280;54760;47.490;19.030;2023-05-19T11:23:08;100677.22;;;24.06;48.14
67980;BME280;54760;47.490;19.030;2023-05-19T11:25:47;100677.09;;;23.84;47.67
67980;BME280;54760;47.490;19.030;2023-05-19T11:28:17;100678.25;;;24.03;47.89
67980;BME280;54760;47.490;19.030;2023-05-19T11:30:44;100676.28;;;24.15;47.48
67980;BME280;54760;47.490;19.030;2023-05-19T11:33:11;100665.47;;;24.34;46.93
67980;BME280;54760;47.490;19.030;2023-05-19T11:35:37;100679.03;;;24.09;47.37
67980;BME280;54760;47.490;19.030;2023-05-19T11:38:04;100674.91;;;23.99;47.32
67980;BME280;54760;47.490;19.030;2023-05-19T11:40:29;100679.09;;;22.86;50.90
67980;BME280;54760;47.490;19.030;2023-05-19T11:42:57;100672.78;;;23.57;48.77
67980;BME280;54760;47.490;19.030;2023-05-19T11:45:25;100670.84;;;23.69;48.39
67980;BME280;54760;47.490;19.030;2023-05-19T11:47:54;100674.56;;;24.17;47.83
67980;BME280;54760;47.490;19.030;2023-05-19T11:50:21;100662.75;;;24.08;47.36
67980;BME280;54760;47.490;19.030;2023-05-19T11:52:47;100664.19;;;24.29;46.92
67980;BME280;54760;47.490;19.030;2023-05-19T11:55:17;100671.22;;;24.19;46.18
67980;BME280;54760;47.490;19.030;2023-05-19T12:00:25;100664.41;;;24.74;45.23
67980;BME280;54760;47.490;19.030;2023-05-19T12:02:51;100665.06;;;25.00;45.27
67980;BME280;54760;47.490;19.030;2023-05-19T12:05:18;100668.56;;;24.89;44.71
67980;BME280;54760;47.490;19.030;2023-05-19T12:07:45;100660.72;;;25.05;44.31
67980;BME280;54760;47.490;19.030;2023-05-19T12:10:14;100661.75;;;24.48;45.78
67980;BME280;54760;47.490;19.030;2023-05-19T12:12:39;100668.03;;;24.85;45.97
67980;BME280;54760;47.490;19.030;2023-05-19T12:15:05;100663.41;;;24.71;45.13
67980;BME280;54760;47.490;19.030;2023-05-19T12:17:31;100655.28;;;24.84;44.61
67980;BME280;54760;47.490;19.030;2023-05-19T12:19:57;100645.84;;;24.76;44.09
67980;BME280;54760;47.490;19.030;2023-05-19T12:22:23;100644.84;;;24.79;45.55
67980;BME280;54760;47.490;19.030;2023-05-19T12:24:49;100644.03;;;24.73;45.17
67980;BME280;54760;47.490;19.030;2023-05-19T12:27:20;100639.72;;;24.78;45.37
67980;BME280;54760;47.490;19.030;2023-05-19T12:29:50;100636.38;;;24.57;46.37
67980;BME280;54760;47.490;19.030;2023-05-19T12:32:16;100637.69;;;24.67;45.32
67980;BME280;54760;47.490;19.030;2023-05-19T12:34:42;100636.34;;;24.51;45.83
67980;BME280;54760;47.490;19.030;2023-05-19T12:37:09;100626.91;;;24.43;46.16
67980;BME280;54760;47.490;19.030;2023-05-19T12:39:35;100623.91;;;24.58;45.45
67980;BME280;54760;47.490;19.030;2023-05-19T12:42:08;100616.31;;;24.75;45.29
67980;BME280;54760;47.490;19.030;2023-05-19T12:44:53;100616.78;;;24.68;45.14
67980;BME280;54760;47.490;19.030;2023-05-19T12:47:19;100615.25;;;24.56;45.10
67980;BME280;54760;47.490;19.030;2023-05-19T12:50:00;100613.53;;;24.81;45.49
67980;BME280;54760;47.490;19.030;2023-05-19T12:52:27;100607.00;;;24.95;44.87
67980;BME280;54760;47.490;19.030;2023-05-19T12:55:06;100607.69;;;24.84;44.94
67980;BME280;54760;47.490;19.030;2023-05-19T12:57:40;100607.53;;;25.16;44.35
67980;BME280;54760;47.490;19.030;2023-05-19T13:00:19;100609.72;;;24.84;45.28
67980;BME280;54760;47.490;19.030;2023-05-19T13:03:04;100600.66;;;25.06;45.58